createdAt,value
2022-12-09T00:00:11.989Z,94.08
2022-12-09T00:02:40.907Z,93.72
2022-12-09T00:05:10.840Z,93.85
2022-12-09T00:07:39.633Z,93.86
2022-12-09T00:10:10.041Z,93.72
2022-12-09T00:12:40.279Z,93.00
2022-12-09T00:15:09.792Z,92.97
2022-12-09T00:17:38.763Z,93.01
2022-12-09T00:20:09.796Z,93.01
2022-12-09T00:22:38.466Z,93.54
2022-12-09T00:25:08.223Z,92.96
2022-12-09T00:27:37.017Z,92.94
2022-12-09T00:30:09.946Z,93.40
2022-12-09T00:32:39.064Z,93.71
2022-12-09T00:35:08.231Z,93.97
2022-12-09T00:37:36.861Z,93.36
2022-12-09T00:40:07.211Z,92.80
2022-12-09T00:42:36.425Z,93.45
2022-12-09T00:45:07.863Z,93.52
2022-12-09T00:47:36.920Z,93.26
2022-12-09T00:50:07.700Z,93.00
2022-12-09T00:52:36.408Z,93.34
2022-12-09T00:55:07.655Z,93.31
2022-12-09T00:57:36.108Z,93.03
2022-12-09T01:00:08.866Z,92.78
2022-12-09T01:02:38.173Z,93.15
2022-12-09T01:05:07.693Z,93.10
2022-12-09T01:07:37.834Z,92.89
2022-12-09T01:10:08.093Z,93.65
2022-12-09T01:12:36.788Z,93.24
2022-12-09T01:15:08.982Z,93.25
2022-12-09T01:17:38.314Z,93.79
2022-12-09T01:20:10.321Z,93.22
2022-12-09T01:22:39.612Z,93.93
2022-12-09T01:25:08.986Z,93.29
2022-12-09T01:27:37.514Z,93.59
2022-12-09T01:30:10.739Z,92.02
2022-12-09T01:32:39.489Z,92.39
2022-12-09T01:35:09.299Z,93.80
2022-12-09T01:37:38.972Z,94.44
2022-12-09T01:40:12.025Z,94.88
2022-12-09T01:42:40.903Z,95.08
2022-12-09T01:45:40.220Z,95.55
2022-12-09T01:48:14.223Z,95.77
2022-12-09T01:50:51.053Z,96.09
2022-12-09T01:53:21.678Z,96.33
2022-12-09T01:55:50.760Z,97.85
2022-12-09T01:58:20.213Z,98.16
2022-12-09T02:00:50.342Z,98.90
2022-12-09T02:03:22.407Z,98.76
2022-12-09T02:05:51.110Z,98.65
2022-12-09T02:08:21.242Z,98.70
2022-12-09T02:11:04.991Z,99.03
2022-12-09T02:13:49.703Z,99.08
2022-12-09T02:16:24.484Z,99.12
2022-12-09T02:19:01.256Z,97.82
2022-12-09T02:21:37.004Z,97.92
2022-12-09T02:24:15.908Z,97.30
2022-12-09T02:26:55.820Z,97.33
2022-12-09T02:29:44.585Z,98.18
2022-12-09T02:32:41.283Z,98.68
2022-12-09T02:35:21.909Z,98.56
2022-12-09T02:37:58.360Z,98.53
2022-12-09T02:40:35.732Z,98.98
2022-12-09T02:43:07.898Z,99.22
2022-12-09T02:45:38.834Z,98.38
2022-12-09T02:48:08.428Z,97.86
2022-12-09T02:50:41.734Z,97.93
2022-12-09T02:53:14.150Z,98.22
2022-12-09T02:55:46.316Z,98.19
2022-12-09T02:58:15.070Z,98.55
2022-12-09T03:00:44.202Z,98.55
2022-12-09T03:03:16.997Z,98.73
2022-12-09T03:05:53.531Z,98.98
2022-12-09T03:08:32.710Z,98.25
2022-12-09T03:11:05.072Z,99.00
2022-12-09T03:13:48.140Z,100.00
2022-12-09T03:16:25.465Z,100.00
2022-12-09T03:18:59.118Z,100.00
2022-12-09T03:21:31.094Z,100.00
2022-12-09T03:24:01.837Z,100.00
2022-12-09T03:26:35.164Z,100.00
2022-12-09T03:29:08.139Z,100.00
2022-12-09T03:31:38.316Z,100.00
2022-12-09T03:34:11.482Z,100.00
2022-12-09T03:36:43.745Z,100.00
2022-12-09T03:39:16.431Z,100.00
2022-12-09T03:41:47.651Z,100.00
2022-12-09T03:44:27.718Z,100.00
2022-12-09T03:46:56.432Z,100.00
2022-12-09T03:49:24.981Z,100.00
2022-12-09T03:52:02.369Z,100.00
2022-12-09T03:54:37.991Z,100.00
2022-12-09T03:57:07.035Z,100.00
2022-12-09T03:59:36.654Z,100.00
2022-12-09T04:02:07.195Z,100.00
2022-12-09T04:04:36.795Z,100.00
2022-12-09T04:07:06.976Z,100.00
2022-12-09T04:09:36.250Z,100.00
2022-12-09T04:12:05.015Z,100.00
2022-12-09T04:14:34.082Z,100.00
2022-12-09T04:17:02.683Z,100.00
2022-12-09T04:19:31.571Z,100.00
2022-12-09T04:22:01.890Z,100.00
2022-12-09T04:24:31.756Z,100.00
2022-12-09T04:27:00.185Z,100.00
2022-12-09T04:29:28.888Z,100.00
2022-12-09T04:31:57.867Z,100.00
2022-12-09T04:34:26.490Z,100.00
2022-12-09T04:36:55.060Z,100.00
2022-12-09T04:39:23.542Z,100.00
2022-12-09T04:41:53.308Z,100.00
2022-12-09T04:44:21.967Z,100.00
2022-12-09T04:46:50.871Z,100.00
2022-12-09T04:49:19.391Z,100.00
2022-12-09T04:51:49.160Z,100.00
2022-12-09T04:54:17.873Z,100.00
2022-12-09T04:56:46.293Z,100.00
2022-12-09T04:59:16.853Z,100.00
2022-12-09T05:01:45.699Z,100.00
2022-12-09T05:04:14.342Z,100.00
2022-12-09T05:06:43.421Z,100.00
2022-12-09T05:09:14.538Z,100.00
2022-12-09T05:11:43.260Z,100.00
2022-12-09T05:14:11.892Z,100.00
2022-12-09T05:16:42.192Z,100.00
2022-12-09T05:19:11.517Z,100.00
2022-12-09T05:21:40.622Z,100.00
2022-12-09T05:24:09.427Z,100.00
2022-12-09T05:26:38.467Z,100.00
2022-12-09T05:29:07.577Z,100.00
2022-12-09T05:31:36.476Z,100.00
2022-12-09T05:34:07.721Z,100.00
2022-12-09T05:36:36.537Z,100.00
2022-12-09T05:39:06.083Z,100.00
2022-12-09T05:41:34.903Z,100.00
2022-12-09T05:44:04.011Z,100.00
2022-12-09T05:46:32.856Z,100.00
2022-12-09T05:49:01.958Z,100.00
2022-12-09T05:51:32.925Z,100.00
2022-12-09T05:54:03.626Z,100.00
2022-12-09T05:56:33.548Z,100.00
2022-12-09T05:59:02.513Z,100.00
2022-12-09T06:01:31.381Z,100.00
2022-12-09T06:03:59.894Z,100.00
2022-12-09T06:06:30.348Z,100.00
2022-12-09T06:09:03.620Z,100.00
2022-12-09T06:11:33.578Z,100.00
2022-12-09T06:14:02.217Z,100.00
2022-12-09T06:16:30.783Z,100.00
2022-12-09T06:19:00.000Z,100.00
2022-12-09T06:21:28.602Z,100.00
2022-12-09T06:23:57.441Z,100.00
2022-12-09T06:26:30.721Z,100.00
2022-12-09T06:29:00.514Z,100.00
2022-12-09T06:31:30.180Z,100.00
2022-12-09T06:33:59.921Z,100.00
2022-12-09T06:36:31.264Z,100.00
2022-12-09T06:39:09.642Z,100.00
2022-12-09T06:41:43.139Z,100.00
2022-12-09T06:44:18.379Z,100.00
2022-12-09T06:46:50.357Z,100.00
2022-12-09T06:49:19.116Z,100.00
2022-12-09T06:51:47.876Z,100.00
2022-12-09T06:54:16.663Z,100.00
2022-12-09T06:56:46.706Z,100.00
2022-12-09T06:59:15.571Z,100.00
2022-12-09T07:01:44.859Z,100.00
2022-12-09T07:04:15.847Z,100.00
2022-12-09T07:06:46.457Z,100.00
2022-12-09T07:09:18.847Z,100.00
2022-12-09T07:11:49.653Z,100.00
2022-12-09T07:14:20.111Z,100.00
2022-12-09T07:16:49.165Z,100.00
2022-12-09T07:19:20.211Z,100.00
2022-12-09T07:21:49.507Z,100.00
2022-12-09T07:24:20.234Z,100.00
2022-12-09T07:26:50.821Z,100.00
2022-12-09T07:29:20.118Z,100.00
2022-12-09T07:31:49.559Z,100.00
2022-12-09T07:34:18.798Z,100.00
2022-12-09T07:36:48.199Z,100.00
2022-12-09T07:39:19.294Z,100.00
2022-12-09T07:41:53.274Z,100.00
2022-12-09T07:44:21.790Z,100.00
2022-12-09T07:46:50.696Z,100.00
2022-12-09T07:49:19.410Z,100.00
2022-12-09T07:51:48.375Z,100.00
2022-12-09T07:54:19.108Z,100.00
2022-12-09T07:56:50.020Z,100.00
2022-12-09T07:59:18.565Z,100.00
2022-12-09T08:01:47.282Z,100.00
2022-12-09T08:04:16.388Z,100.00
2022-12-09T08:06:44.952Z,100.00
2022-12-09T08:09:15.756Z,100.00
2022-12-09T08:11:44.689Z,100.00
2022-12-09T08:14:15.022Z,100.00
2022-12-09T08:16:44.668Z,100.00
2022-12-09T08:19:14.552Z,100.00
2022-12-09T08:21:45.504Z,100.00
2022-12-09T08:24:15.927Z,100.00
2022-12-09T08:26:44.596Z,100.00
2022-12-09T08:29:16.355Z,100.00
2022-12-09T08:31:45.604Z,100.00
2022-12-09T08:34:15.343Z,100.00
2022-12-09T08:36:45.080Z,100.00
2022-12-09T08:39:15.518Z,100.00
2022-12-09T08:41:44.875Z,100.00
2022-12-09T08:44:18.787Z,100.00
2022-12-09T08:46:49.545Z,100.00
2022-12-09T08:49:21.177Z,100.00
2022-12-09T08:51:52.640Z,100.00
2022-12-09T08:54:21.718Z,100.00
2022-12-09T08:56:55.227Z,100.00
2022-12-09T08:59:25.560Z,100.00
2022-12-09T09:01:54.507Z,100.00
2022-12-09T09:04:24.495Z,100.00
2022-12-09T09:06:54.738Z,100.00
2022-12-09T09:09:23.474Z,100.00
2022-12-09T09:11:52.574Z,100.00
2022-12-09T09:14:21.351Z,100.00
2022-12-09T09:16:52.042Z,100.00
2022-12-09T09:19:26.029Z,100.00
2022-12-09T09:21:56.261Z,100.00
2022-12-09T09:24:26.793Z,100.00
2022-12-09T09:26:56.735Z,100.00
2022-12-09T09:29:25.735Z,100.00
2022-12-09T09:31:56.521Z,100.00
2022-12-09T09:34:26.975Z,100.00
2022-12-09T09:36:57.837Z,100.00
2022-12-09T09:39:26.585Z,100.00
2022-12-09T09:42:01.968Z,100.00
2022-12-09T09:44:38.890Z,100.00
2022-12-09T09:47:19.856Z,100.00
2022-12-09T09:49:55.702Z,100.00
2022-12-09T09:52:28.394Z,100.00
2022-12-09T09:54:58.007Z,100.00
2022-12-09T09:57:36.752Z,99.33
2022-12-09T10:00:22.379Z,98.22
2022-12-09T10:03:01.346Z,96.61
2022-12-09T10:05:34.341Z,96.29
2022-12-09T10:08:27.079Z,95.35
2022-12-09T10:11:09.152Z,95.00
2022-12-09T10:13:48.568Z,94.76
2022-12-09T10:16:20.963Z,94.98
2022-12-09T10:19:08.901Z,95.17
2022-12-09T10:21:43.478Z,94.54
2022-12-09T10:24:25.021Z,93.69
2022-12-09T10:27:04.899Z,93.55
2022-12-09T10:29:56.065Z,92.53
2022-12-09T10:32:28.811Z,91.91
2022-12-09T10:34:59.259Z,91.79
2022-12-09T10:37:32.131Z,92.09
2022-12-09T10:40:18.157Z,91.53
2022-12-09T10:43:08.074Z,91.38
2022-12-09T10:46:15.845Z,90.44
2022-12-09T10:48:37.665Z,91.04
2022-12-09T10:51:14.163Z,90.84
2022-12-09T10:53:48.721Z,90.46
2022-12-09T10:56:24.356Z,90.48
2022-12-09T10:59:12.722Z,89.08
2022-12-09T11:01:51.993Z,87.51
2022-12-09T11:04:26.859Z,87.82
2022-12-09T11:07:01.103Z,86.86
2022-12-09T11:09:32.204Z,87.13
2022-12-09T11:12:02.269Z,87.59
2022-12-09T11:14:36.684Z,87.96
2022-12-09T11:17:18.745Z,87.23
2022-12-09T11:19:51.430Z,86.65
2022-12-09T11:22:39.580Z,87.26
2022-12-09T11:25:23.971Z,87.74
2022-12-09T11:27:56.272Z,88.06
2022-12-09T11:30:28.003Z,87.49
2022-12-09T11:33:03.329Z,87.56
2022-12-09T11:35:52.828Z,86.65
2022-12-09T11:38:33.217Z,85.57
2022-12-09T11:41:07.860Z,85.88
2022-12-09T11:43:41.276Z,87.93
2022-12-09T11:46:25.770Z,88.44
2022-12-09T11:48:58.396Z,89.33
2022-12-09T11:51:32.919Z,89.40
2022-12-09T11:54:10.345Z,87.83
2022-12-09T11:56:41.733Z,86.77
2022-12-09T11:59:16.466Z,85.80
2022-12-09T12:01:53.230Z,84.44
2022-12-09T12:04:28.582Z,83.42
2022-12-09T12:07:03.495Z,81.80
2022-12-09T12:09:40.825Z,81.18
2022-12-09T12:12:19.706Z,79.63
2022-12-09T12:14:48.314Z,79.26
2022-12-09T12:17:25.899Z,79.49
2022-12-09T12:19:56.387Z,81.03
2022-12-09T12:23:05.101Z,80.83
2022-12-09T12:25:48.124Z,81.43
2022-12-09T12:29:06.887Z,80.91
2022-12-09T12:32:14.554Z,80.63
2022-12-09T12:34:53.610Z,79.56
2022-12-09T12:37:39.951Z,80.13
2022-12-09T12:40:22.015Z,81.66
2022-12-09T12:43:28.573Z,81.71
2022-12-09T12:46:21.952Z,81.97
2022-12-09T12:49:24.308Z,82.06
2022-12-09T12:52:04.671Z,82.76
2022-12-09T12:54:45.503Z,81.40
2022-12-09T12:57:21.227Z,81.27
2022-12-09T13:00:00.026Z,84.76
2022-12-09T13:02:41.527Z,82.85
2022-12-09T13:05:19.962Z,83.15
2022-12-09T13:07:52.878Z,84.28
2022-12-09T13:10:31.824Z,84.33
2022-12-09T13:13:02.016Z,84.48
2022-12-09T13:15:34.956Z,84.82
2022-12-09T13:18:12.966Z,85.20
2022-12-09T13:20:47.849Z,84.97
2022-12-09T13:23:33.754Z,84.43
2022-12-09T13:26:19.120Z,84.39
2022-12-09T13:28:54.307Z,84.39
2022-12-09T13:31:29.974Z,83.32
2022-12-09T13:34:18.120Z,83.59
2022-12-09T13:36:48.920Z,83.75
2022-12-09T13:39:59.489Z,83.57
2022-12-09T13:42:56.470Z,82.52
2022-12-09T13:45:34.832Z,82.38
2022-12-09T13:48:46.773Z,83.43
2022-12-09T13:51:16.424Z,83.84
2022-12-09T13:54:03.793Z,84.93
2022-12-09T13:56:35.419Z,85.88
2022-12-09T13:59:43.621Z,85.90
2022-12-09T14:02:23.107Z,86.20
2022-12-09T14:05:06.985Z,86.01
2022-12-09T14:07:42.960Z,85.13
2022-12-09T14:10:40.776Z,84.88
2022-12-09T14:13:30.639Z,84.46
2022-12-09T14:16:19.409Z,84.32
2022-12-09T14:18:47.842Z,84.02
2022-12-09T14:21:33.704Z,84.26
2022-12-09T14:24:36.673Z,83.97
2022-12-09T14:27:17.842Z,83.69
2022-12-09T14:29:51.591Z,83.89
2022-12-09T14:32:24.231Z,83.87
2022-12-09T14:35:08.879Z,83.48
2022-12-09T14:38:10.373Z,83.11
2022-12-09T14:40:56.897Z,83.54
2022-12-09T14:44:08.569Z,84.78
2022-12-09T14:46:39.400Z,86.79
2022-12-09T14:49:16.984Z,88.18
2022-12-09T14:51:49.959Z,89.49
2022-12-09T14:54:28.376Z,91.54
2022-12-09T14:57:00.327Z,92.70
2022-12-09T14:59:31.697Z,92.66
2022-12-09T15:02:03.206Z,93.43
2022-12-09T15:04:35.632Z,93.75
2022-12-09T15:07:15.800Z,93.63
2022-12-09T15:09:55.798Z,94.13
2022-12-09T15:12:31.423Z,94.20
2022-12-09T15:15:06.411Z,94.43
2022-12-09T15:17:43.233Z,94.05
2022-12-09T15:20:27.721Z,93.64
2022-12-09T15:23:00.470Z,93.74
2022-12-09T15:25:30.900Z,93.73
2022-12-09T15:28:01.977Z,93.85
2022-12-09T15:30:35.168Z,94.16
2022-12-09T15:33:05.250Z,94.59
2022-12-09T15:35:35.323Z,94.27
2022-12-09T15:38:08.764Z,94.26
2022-12-09T15:40:59.215Z,94.83
2022-12-09T15:43:27.753Z,95.14
2022-12-09T15:45:56.535Z,95.18
2022-12-09T15:48:33.074Z,94.68
2022-12-09T15:51:06.575Z,95.15
2022-12-09T15:53:40.677Z,95.29
2022-12-09T15:56:15.920Z,95.02
2022-12-09T15:58:49.624Z,94.57
2022-12-09T16:01:23.846Z,94.40
2022-12-09T16:03:54.729Z,93.78
2022-12-09T16:06:28.555Z,93.89
2022-12-09T16:08:57.059Z,92.78
2022-12-09T16:11:42.494Z,93.14
2022-12-09T16:14:11.825Z,92.47
2022-12-09T16:16:48.333Z,92.96
2022-12-09T16:19:38.260Z,92.85
2022-12-09T16:22:09.759Z,91.98
2022-12-09T16:25:13.483Z,91.96
2022-12-09T16:27:38.258Z,91.34
2022-12-09T16:30:15.339Z,91.17
2022-12-09T16:32:47.926Z,91.05
2022-12-09T16:35:24.234Z,91.31
2022-12-09T16:38:17.332Z,91.35
2022-12-09T16:41:13.358Z,91.30
2022-12-09T16:43:58.522Z,90.81
2022-12-09T16:46:41.523Z,90.81
2022-12-09T16:49:10.223Z,91.12
2022-12-09T16:51:40.486Z,90.89
2022-12-09T16:54:20.579Z,91.05
2022-12-09T16:56:51.381Z,91.01
2022-12-09T16:59:21.370Z,91.47
2022-12-09T17:01:50.298Z,91.36
2022-12-09T17:04:23.482Z,91.04
2022-12-09T17:06:52.259Z,91.08
2022-12-09T17:09:21.035Z,91.35
2022-12-09T17:11:49.616Z,91.60
2022-12-09T17:14:19.947Z,91.87
2022-12-09T17:16:48.558Z,91.17
2022-12-09T17:19:19.570Z,91.86
2022-12-09T17:21:47.962Z,92.12
2022-12-09T17:24:17.248Z,92.31
2022-12-09T17:26:45.699Z,92.30
2022-12-09T17:29:14.719Z,92.17
2022-12-09T17:31:44.698Z,92.49
2022-12-09T17:34:13.165Z,92.43
2022-12-09T17:36:41.653Z,92.63
2022-12-09T17:39:12.744Z,92.92
2022-12-09T17:41:41.215Z,92.89
2022-12-09T17:44:10.333Z,93.57
2022-12-09T17:46:38.816Z,93.33
2022-12-09T17:49:08.613Z,93.54
2022-12-09T17:51:36.991Z,93.79
2022-12-09T17:54:06.026Z,94.32
2022-12-09T17:56:34.562Z,94.22
2022-12-09T17:59:07.400Z,94.56
2022-12-09T18:01:37.696Z,94.23
2022-12-09T18:04:10.489Z,94.12
2022-12-09T18:06:41.265Z,93.74
2022-12-09T18:09:12.543Z,94.52
2022-12-09T18:11:41.543Z,94.18
2022-12-09T18:14:11.098Z,94.40
2022-12-09T18:16:39.797Z,94.14
2022-12-09T18:19:15.312Z,94.61
2022-12-09T18:21:44.192Z,94.88
2022-12-09T18:24:12.825Z,94.20
2022-12-09T18:26:42.353Z,94.52
2022-12-09T18:29:11.921Z,94.17
2022-12-09T18:31:40.722Z,95.15
2022-12-09T18:34:10.618Z,94.85
2022-12-09T18:36:39.436Z,95.05
2022-12-09T18:39:08.497Z,94.70
2022-12-09T18:41:37.049Z,94.75
2022-12-09T18:44:08.242Z,94.95
2022-12-09T18:46:39.337Z,94.70
2022-12-09T18:49:13.074Z,94.80
2022-12-09T18:51:43.118Z,94.61
2022-12-09T18:54:17.344Z,94.95
2022-12-09T18:56:46.632Z,95.34
2022-12-09T18:59:15.208Z,95.44
2022-12-09T19:01:46.330Z,95.73
2022-12-09T19:04:19.403Z,94.88
2022-12-09T19:06:50.474Z,94.62
2022-12-09T19:09:21.336Z,95.82
2022-12-09T19:11:51.574Z,96.43
2022-12-09T19:14:23.123Z,96.21
2022-12-09T19:16:52.623Z,95.73
2022-12-09T19:19:25.560Z,95.45
2022-12-09T19:21:55.215Z,96.06
2022-12-09T19:24:26.543Z,95.64
2022-12-09T19:26:57.922Z,95.50
2022-12-09T19:29:28.092Z,95.69
2022-12-09T19:31:58.413Z,95.32
2022-12-09T19:34:30.520Z,96.11
2022-12-09T19:37:01.696Z,97.12
2022-12-09T19:39:34.052Z,97.54
2022-12-09T19:42:05.085Z,97.22
2022-12-09T19:45:00.345Z,97.61
2022-12-09T19:47:23.849Z,97.61
2022-12-09T19:49:53.635Z,97.47
2022-12-09T19:52:22.140Z,96.99
2022-12-09T19:54:50.652Z,97.70
2022-12-09T19:57:19.156Z,98.55
2022-12-09T19:59:48.233Z,98.67
2022-12-09T20:02:16.724Z,99.22
2022-12-09T20:04:50.195Z,98.73
2022-12-09T20:07:21.083Z,98.97
2022-12-09T20:09:49.987Z,99.13
2022-12-09T20:12:18.460Z,98.59
2022-12-09T20:14:47.046Z,98.24
2022-12-09T20:17:16.775Z,98.58
2022-12-09T20:19:45.579Z,97.76
2022-12-09T20:22:14.063Z,97.86
2022-12-09T20:24:44.352Z,97.23
2022-12-09T20:27:13.040Z,97.65
2022-12-09T20:29:41.478Z,97.50
2022-12-09T20:32:10.774Z,96.83
2022-12-09T20:34:39.676Z,97.40
2022-12-09T20:37:08.494Z,97.34
2022-12-09T20:39:37.103Z,97.68
2022-12-09T20:42:07.299Z,97.54
2022-12-09T20:44:35.711Z,97.34
2022-12-09T20:47:04.207Z,97.11
2022-12-09T20:49:32.676Z,96.66
2022-12-09T20:52:01.179Z,96.92
2022-12-09T20:54:29.782Z,96.89
2022-12-09T20:56:58.178Z,96.68
2022-12-09T20:59:28.509Z,96.08
2022-12-09T21:01:57.003Z,95.64
2022-12-09T21:04:25.528Z,95.62
2022-12-09T21:06:54.101Z,95.50
2022-12-09T21:09:27.216Z,95.33
2022-12-09T21:11:55.703Z,94.98
2022-12-09T21:14:28.120Z,95.64
2022-12-09T21:17:03.028Z,95.74
2022-12-09T21:19:32.545Z,95.58
2022-12-09T21:22:01.050Z,95.18
2022-12-09T21:24:29.558Z,94.97
2022-12-09T21:26:58.153Z,95.13
2022-12-09T21:29:31.510Z,95.03
2022-12-09T21:32:02.684Z,95.31
2022-12-09T21:34:31.695Z,95.57
2022-12-09T21:37:00.398Z,95.92
2022-12-09T21:39:29.325Z,95.93
2022-12-09T21:41:57.759Z,96.23
2022-12-09T21:44:27.276Z,95.91
2022-12-09T21:46:55.763Z,95.52
2022-12-09T21:49:25.991Z,95.65
2022-12-09T21:51:54.409Z,95.95
2022-12-09T21:54:22.848Z,96.40
2022-12-09T21:56:51.290Z,96.46
2022-12-09T21:59:19.905Z,96.64
2022-12-09T22:01:48.416Z,96.47
2022-12-09T22:04:17.847Z,96.47
2022-12-09T22:06:50.039Z,96.26
2022-12-09T22:09:21.232Z,96.35
2022-12-09T22:11:49.948Z,96.81
2022-12-09T22:14:18.440Z,96.87
2022-12-09T22:16:47.594Z,97.27
2022-12-09T22:19:18.618Z,97.64
2022-12-09T22:21:49.729Z,97.33
2022-12-09T22:24:19.339Z,96.95
2022-12-09T22:26:48.558Z,97.12
2022-12-09T22:29:18.783Z,97.10
2022-12-09T22:31:47.977Z,97.14
2022-12-09T22:34:19.871Z,97.20
2022-12-09T22:36:50.617Z,97.20
2022-12-09T22:39:22.758Z,97.07
2022-12-09T22:41:51.876Z,97.29
2022-12-09T22:44:21.298Z,97.77
2022-12-09T22:46:50.083Z,97.73
2022-12-09T22:49:19.795Z,97.37
2022-12-09T22:51:49.740Z,96.95
2022-12-09T22:54:18.540Z,97.71
2022-12-09T22:56:47.059Z,97.79
2022-12-09T22:59:16.093Z,97.14
2022-12-09T23:01:47.491Z,97.29
2022-12-09T23:04:19.071Z,97.34
2022-12-09T23:06:47.527Z,96.88
2022-12-09T23:09:21.049Z,97.47
2022-12-09T23:11:50.527Z,97.37
2022-12-09T23:14:19.875Z,97.17
2022-12-09T23:16:48.464Z,97.05
2022-12-09T23:19:16.815Z,97.70
2022-12-09T23:21:45.256Z,97.39
2022-12-09T23:24:24.122Z,98.17
2022-12-09T23:26:55.393Z,97.93
2022-12-09T23:29:23.957Z,97.66
2022-12-09T23:31:52.427Z,97.82
2022-12-09T23:34:21.268Z,97.33
2022-12-09T23:36:49.696Z,97.49
2022-12-09T23:39:20.687Z,97.61
2022-12-09T23:41:49.731Z,97.33
2022-12-09T23:44:20.316Z,97.13
2022-12-09T23:46:49.592Z,96.74
2022-12-09T23:49:18.680Z,96.20
2022-12-09T23:51:48.069Z,96.35
2022-12-09T23:54:19.434Z,96.22
2022-12-09T23:56:50.710Z,95.73
2022-12-09T23:59:22.405Z,95.92
